Time;durP1;ratioP1;P1;durP2;ratioP2;P2;SDS_P1;SDS_P2;PMS_P1;PMS_P2;Temp;Humidity;BMP_temperature;BMP_pressure;BME280_temperature;BME280_humidity;BME280_pressure;Samples;Min_cycle;Max_cycle;Signal;HPM_P1;HPM_P2
2022/10/22 00:01:33;;;;;;;6.18;3.75;;;;;;;3.79;56.69;96063.75;6297205;28;20036;-68
2022/10/22 00:04:37;;;;;;;5.47;4.15;;;;;;;3.80;56.39;96062.84;6297252;28;20041;-68
2022/10/22 00:07:44;;;;;;;5.78;3.90;;;;;;;3.77;56.61;96073.41;6296894;28;20040;-68
2022/10/22 00:10:49;;;;;;;5.78;3.92;;;;;;;3.74;56.15;96084.00;6297006;28;20041;-69
2022/10/22 00:13:53;;;;;;;4.70;2.97;;;;;;;3.68;56.58;96095.53;6297217;28;20060;-70
2022/10/22 00:16:59;;;;;;;3.60;3.20;;;;;;;3.64;56.84;96093.16;6296563;28;20147;-70
2022/10/22 00:20:01;;;;;;;3.30;2.40;;;;;;;3.59;56.87;96102.03;6296775;28;20048;-70
2022/10/22 00:23:04;;;;;;;2.67;2.47;;;;;;;3.57;56.91;96098.66;6296806;28;20052;-67
2022/10/22 00:26:09;;;;;;;3.55;2.45;;;;;;;3.60;57.06;96101.13;6296542;28;20049;-68
2022/10/22 00:29:13;;;;;;;3.75;2.22;;;;;;;3.59;56.79;96107.25;6295392;28;20052;-68
2022/10/22 00:32:20;;;;;;;3.33;2.78;;;;;;;3.59;56.78;96106.38;6296933;28;20505;-68
2022/10/22 00:35:26;;;;;;;3.72;2.20;;;;;;;3.62;56.62;96110.59;6296631;28;20044;-69
2022/10/22 00:38:30;;;;;;;5.30;2.45;;;;;;;3.56;56.74;96116.94;6296578;28;20063;-69
2022/10/22 00:41:34;;;;;;;5.28;2.63;;;;;;;3.55;56.72;96115.28;6286430;28;273726;-68
2022/10/22 00:44:57;;;;;;;;;;;;;;;3.61;56.85;96114.97;6297130;28;20048;-69
2022/10/22 00:48:06;;;;;;;4.45;1.85;;;;;;;3.60;56.47;96119.31;6297837;28;20226;-69
2022/10/22 00:51:13;;;;;;;4.00;2.40;;;;;;;3.57;56.77;96088.25;6297825;28;20037;-69
2022/10/22 00:54:15;;;;;;;4.88;2.60;;;;;;;3.58;56.70;96084.72;6297567;28;20052;-68
2022/10/22 00:57:19;;;;;;;3.58;2.47;;;;;;;3.61;57.33;96088.94;6296886;28;20054;-68
2022/10/22 01:00:20;;;;;;;4.10;2.50;;;;;;;3.59;56.98;96076.03;6297516;28;20048;-69
2022/10/22 01:03:22;;;;;;;5.35;2.75;;;;;;;3.58;57.17;96099.50;6297264;28;20520;-69
2022/10/22 01:06:30;;;;;;;5.50;3.05;;;;;;;3.56;57.02;96107.38;6297271;28;20523;-69
2022/10/22 01:09:39;;;;;;;3.10;2.80;;;;;;;3.49;57.35;96106.00;6296245;28;20133;-69
2022/10/22 01:13:06;;;;;;;5.75;2.63;;;;;;;3.50;57.18;96107.69;6296249;28;20060;-69
2022/10/22 01:16:33;;;;;;;4.72;2.67;;;;;;;3.41;57.58;96104.69;6285903;28;20063;-69
2022/10/22 01:20:03;;;;;;;6.18;2.40;;;;;;;3.38;57.61;96103.09;6295512;28;20048;-70
2022/10/22 01:23:28;;;;;;;2.50;2.30;;;;;;;3.37;57.62;96101.41;6296676;28;20502;-70
2022/10/22 01:26:35;;;;;;;3.63;2.50;;;;;;;3.38;57.65;96111.72;6296467;28;20036;-70
2022/10/22 01:29:45;;;;;;;4.82;2.78;;;;;;;3.37;57.44;96111.81;6296345;28;20052;-70
2022/10/22 01:32:55;;;;;;;5.03;2.75;;;;;;;3.31;57.72;96091.28;6296946;28;20056;-69
2022/10/22 01:36:00;;;;;;;3.80;2.80;;;;;;;3.37;57.58;96096.22;6296363;28;20049;-69
2022/10/22 01:39:03;;;;;;;5.93;3.03;;;;;;;3.35;57.50;96098.03;6296387;28;20058;-69
2022/10/22 01:42:07;;;;;;;5.32;3.67;;;;;;;3.25;57.65;96102.00;6296329;28;20044;-69
2022/10/22 01:45:12;;;;;;;6.35;3.10;;;;;;;3.23;57.87;96111.59;6296362;28;20044;-69
2022/10/22 01:48:34;;;;;;;8.27;2.92;;;;;;;3.24;57.65;96114.16;6296187;28;20417;-69
2022/10/22 01:52:00;;;;;;;5.03;2.72;;;;;;;3.20;57.88;96124.75;6295253;28;20048;-69
2022/10/22 01:55:13;;;;;;;3.38;2.83;;;;;;;3.15;58.00;96107.63;6296118;28;20520;-68
2022/10/22 01:58:17;;;;;;;3.58;2.50;;;;;;;3.09;58.22;96113.13;6295823;28;20417;-68
2022/10/22 02:01:38;;;;;;;4.35;2.88;;;;;;;3.05;58.25;96110.75;6295960;28;20045;-69
2022/10/22 02:04:52;;;;;;;5.75;2.83;;;;;;;3.03;58.20;96110.81;6295912;28;20044;-69
2022/10/22 02:08:11;;;;;;;5.55;2.60;;;;;;;3.00;58.29;96103.19;6295430;28;20080;-69
2022/10/22 02:11:17;;;;;;;5.75;2.80;;;;;;;3.04;58.16;96111.66;6295925;28;20040;-69
2022/10/22 02:14:21;;;;;;;4.90;2.30;;;;;;;3.03;57.91;96118.63;6295994;28;20593;-69
2022/10/22 02:17:27;;;;;;;3.42;2.60;;;;;;;3.00;58.32;96117.91;6295416;28;20048;-69
2022/10/22 02:20:32;;;;;;;5.40;2.55;;;;;;;3.00;58.32;96118.78;6295619;28;20047;-70
2022/10/22 02:23:35;;;;;;;5.60;3.17;;;;;;;2.97;58.30;96124.09;6295393;28;20041;-69
2022/10/22 02:26:46;;;;;;;4.38;2.50;;;;;;;3.02;58.12;96119.53;6295303;28;20043;-69
2022/10/22 02:30:14;;;;;;;4.25;3.28;;;;;;;3.08;58.32;96132.22;6295099;28;21080;-69
2022/10/22 02:33:29;;;;;;;7.50;3.75;;;;;;;3.01;58.42;96133.44;6292288;28;20166;-69
2022/10/22 02:36:31;;;;;;;6.30;3.47;;;;;;;2.85;59.01;96129.84;6295564;28;20418;-68
2022/10/22 02:39:35;;;;;;;3.72;2.78;;;;;;;2.81;58.71;96128.31;6294843;28;20041;-68
2022/10/22 02:42:40;;;;;;;5.05;3.60;;;;;;;2.76;58.30;96125.09;6295318;28;20048;-68
2022/10/22 02:45:46;;;;;;;3.90;2.90;;;;;;;2.72;58.25;96136.53;6295367;28;20041;-68
2022/10/22 02:48:50;;;;;;;3.28;2.17;;;;;;;2.73;58.04;96127.84;6293826;28;20407;-69
2022/10/22 02:51:51;;;;;;;4.30;2.58;;;;;;;2.68;57.60;96118.47;6295339;28;20249;-69
2022/10/22 02:54:52;;;;;;;5.25;2.42;;;;;;;2.70;56.93;96116.66;6294928;28;20045;-69
2022/10/22 02:57:56;;;;;;;4.50;2.30;;;;;;;2.56;56.43;96098.28;6295040;28;20044;-68
2022/10/22 03:00:59;;;;;;;5.60;2.40;;;;;;;2.57;56.40;96119.88;6295104;28;20037;-71
2022/10/22 03:04:03;;;;;;;4.85;3.00;;;;;;;2.52;56.44;96114.91;6295199;28;20501;-69
2022/10/22 03:07:08;;;;;;;4.32;2.80;;;;;;;2.44;56.86;96109.22;6293908;28;20076;-69
2022/10/22 03:10:09;;;;;;;5.35;3.30;;;;;;;2.47;56.40;96114.28;6294850;28;20041;-69
2022/10/22 03:13:11;;;;;;;6.15;3.13;;;;;;;2.46;56.55;96112.56;6294118;28;20075;-69
2022/10/22 03:16:17;;;;;;;5.50;2.17;;;;;;;2.59;56.11;96108.50;6294888;28;20048;-69
2022/10/22 03:19:19;;;;;;;5.43;2.40;;;;;;;2.60;55.58;96104.16;6294648;28;20506;-69
2022/10/22 03:22:28;;;;;;;3.08;1.83;;;;;;;2.67;54.72;96109.00;6294874;28;20053;-69
2022/10/22 03:25:33;;;;;;;4.72;2.10;;;;;;;2.53;55.37;96111.41;6294577;28;20048;-69
2022/10/22 03:28:39;;;;;;;6.03;2.38;;;;;;;2.45;55.45;96100.50;6294678;28;20513;-69
2022/10/22 03:31:43;;;;;;;5.03;2.60;;;;;;;2.48;55.60;96089.97;6294806;28;20045;-69
2022/10/22 03:34:45;;;;;;;3.95;2.80;;;;;;;2.58;55.38;96088.66;6296440;28;20048;-69
2022/10/22 03:37:47;;;;;;;3.92;2.20;;;;;;;2.51;55.40;96089.84;6298877;28;20109;-69
2022/10/22 03:40:49;;;;;;;2.83;1.92;;;;;;;2.51;55.87;96105.41;6298550;28;20032;-68
2022/10/22 03:43:53;;;;;;;5.03;2.25;;;;;;;2.48;55.92;96102.97;6298667;28;20052;-69
2022/10/22 03:46:56;;;;;;;5.65;2.78;;;;;;;2.62;56.07;96102.34;6299178;28;20052;-69
2022/10/22 03:49:58;;;;;;;4.38;2.30;;;;;;;2.65;55.86;96118.63;6298958;28;20040;-68
2022/10/22 03:52:59;;;;;;;4.40;2.42;;;;;;;2.75;55.54;96113.03;6298594;28;20048;-68
2022/10/22 03:56:09;;;;;;;4.18;2.33;;;;;;;2.69;55.97;96115.00;6298759;28;20048;-69
2022/10/22 03:59:16;;;;;;;1.95;1.17;;;;;;;2.67;55.62;96110.78;6298722;28;20044;-69
2022/10/22 04:02:21;;;;;;;2.60;1.70;;;;;;;2.70;55.47;96114.06;6298382;28;20139;-68
2022/10/22 04:05:26;;;;;;;2.75;1.70;;;;;;;2.79;54.99;96114.56;6298609;28;20044;-68
2022/10/22 04:08:28;;;;;;;3.83;1.40;;;;;;;2.60;55.19;96110.19;6298704;28;20554;-69
2022/10/22 04:11:29;;;;;;;2.92;1.23;;;;;;;2.53;55.15;96106.19;6298351;28;20044;-70
2022/10/22 04:14:31;;;;;;;4.82;1.80;;;;;;;2.61;55.58;96124.88;6298283;28;20041;-69
2022/10/22 04:17:39;;;;;;;3.65;2.03;;;;;;;2.60;55.28;96125.78;6298256;28;20052;-70
2022/10/22 04:20:50;;;;;;;2.90;1.90;;;;;;;2.68;55.73;96128.88;6298431;28;20040;-69
2022/10/22 04:23:55;;;;;;;2.95;1.85;;;;;;;2.77;56.10;96126.75;6298207;28;20098;-70
2022/10/22 04:26:58;;;;;;;7.88;2.55;;;;;;;2.80;55.82;96126.63;6297928;28;20074;-69
2022/10/22 04:30:05;;;;;;;10.57;3.30;;;;;;;2.79;56.32;96120.59;6297763;28;20048;-71
2022/10/22 04:33:11;;;;;;;8.13;2.95;;;;;;;2.81;56.34;96117.94;6298043;28;20045;-70
2022/10/22 04:36:17;;;;;;;8.02;2.63;;;;;;;2.87;56.41;96128.03;6297686;28;20494;-69
2022/10/22 04:39:21;;;;;;;8.55;2.80;;;;;;;2.94;56.52;96126.81;6297739;28;20505;-69
2022/10/22 04:42:25;;;;;;;5.55;2.55;;;;;;;2.99;56.21;96121.44;6297585;28;20059;-69
2022/10/22 04:45:29;;;;;;;;;;;;;;;3.06;56.03;96128.88;6296898;28;20040;-68
2022/10/22 04:48:33;;;;;;;3.65;1.58;;;;;;;3.12;55.65;96130.34;6297562;28;19927;-70
2022/10/22 04:51:35;;;;;;;3.75;2.10;;;;;;;3.19;55.33;96133.47;6297310;28;20118;-70
2022/10/22 04:54:36;;;;;;;1.63;1.35;;;;;;;3.19;55.10;96146.47;6297286;28;20391;-69
2022/10/22 04:57:37;;;;;;;2.78;1.40;;;;;;;3.07;55.11;96125.34;6297149;28;20417;-70
2022/10/22 05:00:41;;;;;;;2.28;1.52;;;;;;;3.05;55.43;96132.38;6297146;28;20041;-69
2022/10/22 05:03:47;;;;;;;2.25;1.30;;;;;;;3.05;55.28;96140.16;6296780;28;20048;-68
2022/10/22 05:06:49;;;;;;;7.85;1.33;;;;;;;3.00;55.50;96128.28;6296747;28;20237;-69
2022/10/22 05:09:50;;;;;;;2.15;1.10;;;;;;;2.91;55.53;96116.56;6296853;28;20418;-69
2022/10/22 05:12:54;;;;;;;1.00;0.85;;;;;;;3.04;55.56;96125.50;6297070;28;20040;-69
2022/10/22 05:16:01;;;;;;;4.30;1.33;;;;;;;3.12;55.38;96118.19;6296581;28;20053;-69
2022/10/22 05:19:03;;;;;;;2.50;1.70;;;;;;;3.01;55.57;96125.63;6296566;28;20052;-69
2022/10/22 05:22:09;;;;;;;2.10;1.15;;;;;;;3.00;55.27;96139.56;6296547;28;20505;-69
2022/10/22 05:25:13;;;;;;;2.70;1.23;;;;;;;2.88;55.36;96140.94;6296459;28;20041;-70
2022/10/22 05:28:17;;;;;;;5.25;1.38;;;;;;;2.90;55.40;96140.88;6296604;28;20538;-69
2022/10/22 05:31:19;;;;;;;2.70;1.40;;;;;;;2.95;54.79;96135.50;6296379;28;20036;-69
2022/10/22 05:34:26;;;;;;;2.40;1.38;;;;;;;2.91;55.39;96137.38;6295234;28;20494;-69
2022/10/22 05:37:30;;;;;;;3.65;1.75;;;;;;;2.95;55.05;96144.13;6294938;28;20044;-69
2022/10/22 05:40:34;;;;;;;3.63;1.33;;;;;;;3.03;54.82;96149.81;6296390;28;20045;-69
2022/10/22 05:43:38;;;;;;;1.40;0.82;;;;;;;3.00;54.71;96144.75;6295753;28;20048;-70
2022/10/22 05:46:42;;;;;;;2.78;1.23;;;;;;;2.99;54.42;96143.06;6296058;28;20135;-70
2022/10/22 05:49:43;;;;;;;4.18;1.48;;;;;;;3.00;54.40;96155.16;6295731;28;20121;-69
2022/10/22 05:52:48;;;;;;;3.90;1.77;;;;;;;3.04;54.33;96146.28;6295934;28;20048;-69
2022/10/22 05:55:53;;;;;;;7.53;2.78;;;;;;;3.18;53.96;96157.81;6296237;28;20060;-70
2022/10/22 05:58:57;;;;;;;7.28;2.75;;;;;;;3.21;53.30;96157.66;6295537;28;20053;-69
2022/10/22 06:02:01;;;;;;;2.90;2.10;;;;;;;3.20;53.00;96162.03;6295483;28;20059;-69
2022/10/22 06:05:03;;;;;;;3.13;1.20;;;;;;;3.26;52.51;96155.69;6295545;28;20533;-68
2022/10/22 06:08:10;;;;;;;1.48;0.90;;;;;;;3.28;52.64;96151.22;6295470;28;20049;-68
2022/10/22 06:11:16;;;;;;;1.35;0.75;;;;;;;3.31;51.86;96143.28;6295073;28;20080;-69
2022/10/22 06:14:21;;;;;;;1.00;0.70;;;;;;;3.30;51.36;96149.41;6295515;28;20040;-69
2022/10/22 06:17:28;;;;;;;3.22;0.98;;;;;;;3.34;51.32;96159.59;6295320;28;20055;-69
2022/10/22 06:20:33;;;;;;;1.20;0.80;;;;;;;3.36;51.47;96162.94;6295477;28;20045;-69
2022/10/22 06:23:43;;;;;;;2.13;0.90;;;;;;;3.40;51.66;96160.22;6295438;28;20494;-70
2022/10/22 06:26:44;;;;;;;1.77;0.80;;;;;;;3.52;51.31;96157.88;6295061;28;20052;-68
2022/10/22 06:29:47;;;;;;;0.90;0.65;;;;;;;3.65;50.56;96154.66;6293742;28;20048;-68
2022/10/22 06:32:50;;;;;;;1.20;0.60;;;;;;;3.69;49.86;96164.03;6295075;28;20043;-69
2022/10/22 06:36:03;;;;;;;1.92;0.60;;;;;;;3.75;49.86;96166.31;6294983;28;20041;-69
2022/10/22 06:39:09;;;;;;;1.38;0.88;;;;;;;3.81;49.46;96176.41;6295186;28;20434;-70
2022/10/22 06:42:16;;;;;;;1.50;0.85;;;;;;;4.12;48.97;96164.50;6295101;28;20502;-70
2022/10/22 06:45:20;;;;;;;1.35;0.75;;;;;;;4.47;47.71;96173.09;6295307;28;20041;-70
2022/10/22 06:48:24;;;;;;;3.03;0.70;;;;;;;4.72;47.61;96172.66;6295136;28;20040;-69
2022/10/22 06:51:29;;;;;;;1.35;0.70;;;;;;;5.09;46.93;96170.69;6295208;28;20036;-69
2022/10/22 06:54:30;;;;;;;2.47;0.68;;;;;;;5.48;46.05;96174.63;6294859;28;20044;-69
2022/10/22 06:57:31;;;;;;;1.08;0.98;;;;;;;6.02;44.98;96178.50;6294729;28;20055;-72
2022/10/22 07:00:33;;;;;;;1.55;1.02;;;;;;;6.35;44.00;96181.88;6294818;28;20044;-71
2022/10/22 07:03:35;;;;;;;1.58;0.77;;;;;;;6.38;44.06;96194.75;6295377;28;20525;-70
2022/10/22 07:06:37;;;;;;;1.63;0.80;;;;;;;6.75;43.72;96198.63;6294487;28;20437;-69
2022/10/22 07:09:46;;;;;;;1.88;0.90;;;;;;;7.49;41.63;96197.53;6294947;28;20426;-69
2022/10/22 07:12:47;;;;;;;4.97;0.73;;;;;;;7.98;41.18;96191.78;6299797;28;20052;-69
2022/10/22 07:15:53;;;;;;;1.88;0.90;;;;;;;8.03;40.52;96197.53;6299566;28;20052;-69
2022/10/22 07:18:55;;;;;;;1.13;1.00;;;;;;;7.61;40.54;96194.16;6298290;28;20045;-69
2022/10/22 07:21:56;;;;;;;2.88;1.42;;;;;;;7.02;42.17;96195.25;6299262;28;20055;-68
2022/10/22 07:25:01;;;;;;;1.10;0.98;;;;;;;6.77;42.18;96190.72;6298824;28;20534;-70
2022/10/22 07:28:06;;;;;;;2.60;1.10;;;;;;;6.48;42.01;96195.88;6298274;28;20082;-70
2022/10/22 07:31:10;;;;;;;2.00;1.00;;;;;;;6.25;42.57;96195.47;6299059;28;20194;-69
2022/10/22 07:34:14;;;;;;;3.88;1.27;;;;;;;6.09;42.68;96194.69;6298549;28;20106;-69
2022/10/22 07:37:20;;;;;;;1.33;0.95;;;;;;;6.18;41.70;96185.47;6298716;28;20129;-69
2022/10/22 07:40:22;;;;;;;2.53;0.88;;;;;;;6.34;42.01;96193.25;6297921;28;20406;-68
2022/10/22 07:43:30;;;;;;;2.03;1.00;;;;;;;6.57;41.32;96189.25;6298190;28;20048;-68
2022/10/22 07:46:34;;;;;;;2.00;1.00;;;;;;;6.73;40.88;96196.09;6297355;28;20051;-68
2022/10/22 07:49:38;;;;;;;2.80;1.30;;;;;;;7.02;40.53;96190.88;6298778;28;20446;-69
2022/10/22 07:52:42;;;;;;;5.38;1.00;;;;;;;7.04;40.42;96199.47;6298450;28;20135;-68
2022/10/22 07:55:52;;;;;;;4.30;1.15;;;;;;;6.77;40.00;96193.31;6298775;28;20185;-69
2022/10/22 07:58:55;;;;;;;3.00;1.40;;;;;;;6.18;41.06;96204.59;6297246;28;20054;-69
2022/10/22 08:02:02;;;;;;;4.10;1.42;;;;;;;5.60;42.11;96206.13;6298378;28;20045;-69
2022/10/22 08:05:04;;;;;;;4.45;1.30;;;;;;;5.12;43.05;96212.22;6298167;28;20048;-69
2022/10/22 08:08:09;;;;;;;2.95;1.60;;;;;;;4.77;43.91;96222.78;6297442;28;20040;-69
2022/10/22 08:11:16;;;;;;;3.25;1.42;;;;;;;4.58;43.49;96222.03;6298257;28;20049;-68
2022/10/22 08:14:17;;;;;;;4.75;1.70;;;;;;;4.40;44.21;96214.25;6298213;28;20044;-70
2022/10/22 08:17:21;;;;;;;3.97;1.70;;;;;;;4.41;43.25;96218.53;6297094;28;20174;-68
2022/10/22 08:20:23;;;;;;;3.10;1.25;;;;;;;4.54;42.58;96220.53;6297267;28;20045;-68
2022/10/22 08:23:24;;;;;;;5.32;1.55;;;;;;;4.72;41.58;96224.78;6296052;28;20044;-68
2022/10/22 08:26:31;;;;;;;1.45;0.80;;;;;;;4.80;39.24;96227.81;6297263;28;20414;-71
2022/10/22 08:29:32;;;;;;;;;;;;;;;4.90;37.88;96231.66;6298065;28;20154;-69
2022/10/22 08:32:38;;;;;;;1.98;0.85;;;;;;;4.65;37.74;96228.63;6297653;28;19920;-69
2022/10/22 08:35:40;;;;;;;1.98;0.73;;;;;;;4.61;37.60;96234.91;6297541;28;20041;-69
2022/10/22 08:38:44;;;;;;;6.97;2.20;;;;;;;4.70;37.21;96232.69;6297095;28;20102;-70
2022/10/22 08:42:02;;;;;;;3.08;1.23;;;;;;;4.79;37.95;96233.97;6297069;28;20048;-69
2022/10/22 08:45:33;;;;;;;1.95;1.10;;;;;;;5.03;38.44;96234.44;6297362;28;20051;-68
2022/10/22 08:48:51;;;;;;;0.65;0.65;;;;;;;5.31;38.35;96246.84;6297335;28;20429;-69
2022/10/22 08:51:59;;;;;;;0.82;0.47;;;;;;;5.51;37.30;96250.13;6296857;28;20179;-69
2022/10/22 08:55:12;;;;;;;0.82;0.50;;;;;;;5.78;36.40;96253.84;6297105;28;20452;-69
2022/10/22 08:58:29;;;;;;;0.40;0.40;;;;;;;6.04;35.97;96259.41;6296524;28;20067;-68
2022/10/22 09:01:46;;;;;;;0.63;0.50;;;;;;;6.20;34.49;96265.44;6297549;28;20040;-69
2022/10/22 09:05:01;;;;;;;0.68;0.40;;;;;;;7.61;32.60;96266.59;6297147;28;20528;-69
2022/10/22 09:08:09;;;;;;;1.17;0.40;;;;;;;10.96;28.39;96273.25;6296772;28;20059;-69
2022/10/22 09:11:34;;;;;;;1.77;0.50;;;;;;;14.29;24.16;96283.59;6297064;28;20052;-69
2022/10/22 09:14:38;;;;;;;0.35;0.30;;;;;;;15.89;21.98;96287.50;6296828;28;20048;-69
2022/10/22 09:17:55;;;;;;;1.23;0.40;;;;;;;16.99;20.72;96284.69;6296640;28;20044;-68
2022/10/22 09:21:12;;;;;;;1.90;0.43;;;;;;;17.09;20.45;96284.59;6296656;28;20044;-69
2022/10/22 09:24:35;;;;;;;0.80;0.40;;;;;;;18.22;19.73;96301.41;6296583;28;20044;-68
2022/10/22 09:27:40;;;;;;;0.43;0.32;;;;;;;18.59;18.57;96289.53;6296418;28;20060;-70
2022/10/22 09:30:44;;;;;;;1.30;0.20;;;;;;;19.21;17.66;96295.25;6296106;28;20071;-69
2022/10/22 09:33:49;;;;;;;0.65;0.30;;;;;;;20.03;16.60;96300.47;6295840;28;20049;-69
2022/10/22 09:37:00;;;;;;;1.40;0.38;;;;;;;20.06;16.58;96304.66;6296010;28;20040;-69
2022/10/22 09:40:04;;;;;;;0.40;0.38;;;;;;;19.48;16.76;96311.94;6296272;28;20040;-68
2022/10/22 09:43:11;;;;;;;0.25;0.25;;;;;;;18.92;16.25;96309.09;6296323;28;20048;-68
2022/10/22 09:46:19;;;;;;;2.50;0.32;;;;;;;19.23;15.87;96301.28;6295982;28;20055;-68
2022/10/22 09:49:26;;;;;;;0.40;0.20;;;;;;;19.67;15.45;96298.25;6296112;28;20595;-70
2022/10/22 09:52:33;;;;;;;1.17;0.40;;;;;;;19.62;14.55;96313.91;6295383;28;20048;-69
2022/10/22 09:55:42;;;;;;;0.68;0.30;;;;;;;19.40;14.95;96303.94;6295956;28;20032;-69
2022/10/22 09:58:48;;;;;;;0.40;0.20;;;;;;;19.68;15.07;96313.25;6295928;28;20040;-69
2022/10/22 10:02:00;;;;;;;1.35;0.40;;;;;;;19.40;14.72;96317.28;6295617;28;20052;-69
2022/10/22 10:05:06;;;;;;;0.90;0.52;;;;;;;18.46;15.14;96311.31;6295789;28;20197;-68
2022/10/22 10:08:16;;;;;;;1.10;0.50;;;;;;;17.81;14.86;96303.06;6296491;28;20128;-68
2022/10/22 10:11:42;;;;;;;1.40;0.40;;;;;;;17.65;15.83;96317.91;6295629;28;20521;-69
2022/10/22 10:15:28;;;;;;;0.63;0.30;;;;;;;18.54;15.41;96318.47;6295177;28;20135;-70
2022/10/22 10:18:40;;;;;;;1.00;0.70;;;;;;;18.09;15.59;96327.66;6269248;28;20515;-70
2022/10/22 10:22:00;;;;;;;2.45;0.50;;;;;;;18.81;15.27;96331.56;6294882;28;20549;-70
2022/10/22 10:25:32;;;;;;;0.80;0.50;;;;;;;19.18;15.12;96337.44;6294640;28;20466;-69
2022/10/22 10:28:43;;;;;;;2.00;0.40;;;;;;;18.45;15.00;96328.28;6295235;28;20056;-69
2022/10/22 10:32:05;;;;;;;0.95;0.20;;;;;;;18.35;15.38;96341.75;6294241;28;20050;-69
2022/10/22 10:35:53;;;;;;;1.00;0.40;;;;;;;17.91;14.76;96349.84;6294697;28;20048;-68
2022/10/22 10:39:27;;;;;;;2.47;0.50;;;;;;;16.53;15.38;96345.00;6295134;28;20052;-69
2022/10/22 10:42:48;;;;;;;1.70;0.57;;;;;;;16.51;15.74;96344.31;6292291;28;20052;-70
2022/10/22 10:45:59;;;;;;;0.88;0.40;;;;;;;16.85;14.75;96351.66;6298982;28;20525;-69
2022/10/22 10:49:17;;;;;;;0.30;0.30;;;;;;;16.76;14.57;96360.53;6299777;28;20066;-69
2022/10/22 10:52:40;;;;;;;0.55;0.30;;;;;;;16.11;14.86;96348.16;6299305;28;20055;-69
2022/10/22 10:56:03;;;;;;;1.60;0.50;;;;;;;15.93;15.15;96360.50;6299981;28;20040;-69
2022/10/22 10:59:42;;;;;;;0.88;0.50;;;;;;;14.97;15.46;96357.00;6299293;28;20560;-69
2022/10/22 11:02:58;;;;;;;0.30;0.30;;;;;;;14.72;15.88;96368.97;6299905;28;20139;-70
2022/10/22 11:06:06;;;;;;;0.65;0.20;;;;;;;14.61;15.68;96364.66;6300152;28;20046;-68
2022/10/22 11:09:27;;;;;;;1.13;0.38;;;;;;;14.72;16.01;96383.06;6298551;28;20135;-69
2022/10/22 11:12:38;;;;;;;2.38;0.60;;;;;;;14.76;15.55;96376.50;6298504;28;20131;-69
2022/10/22 11:15:49;;;;;;;0.47;0.47;;;;;;;14.15;15.67;96381.88;6299672;28;20127;-68
2022/10/22 11:19:05;;;;;;;0.95;0.50;;;;;;;14.25;15.99;96384.59;6299560;28;20489;-69
2022/10/22 11:22:27;;;;;;;1.17;0.40;;;;;;;14.19;16.09;96388.59;6299786;28;20122;-69
2022/10/22 11:25:40;;;;;;;1.45;0.47;;;;;;;14.12;15.88;96383.00;6299463;28;20542;-69
2022/10/22 11:28:49;;;;;;;0.60;0.50;;;;;;;13.99;16.42;96397.44;6299634;28;20037;-69
2022/10/22 11:31:53;;;;;;;0.80;0.50;;;;;;;13.75;16.06;96395.91;6299522;28;20041;-69
2022/10/22 11:34:57;;;;;;;;;;;;;;;13.67;16.17;96395.72;6299676;28;20048;-69
2022/10/22 11:37:59;;;;;;;1.95;0.50;;;;;;;12.44;16.74;96397.88;6297585;28;19950;-69
2022/10/22 11:41:13;;;;;;;2.05;0.85;;;;;;;12.07;17.20;96406.06;6298967;28;20135;-69
2022/10/22 11:44:22;;;;;;;1.15;0.70;;;;;;;11.82;17.47;96411.53;6298999;28;20032;-69
2022/10/22 11:47:30;;;;;;;1.55;0.70;;;;;;;11.89;17.49;96418.06;6299211;28;20048;-69
2022/10/22 11:50:47;;;;;;;2.47;0.90;;;;;;;11.37;18.35;96433.34;6297472;28;20044;-69
2022/10/22 11:53:55;;;;;;;2.03;1.33;;;;;;;10.40;18.89;96428.22;6298415;28;20044;-68
2022/10/22 11:57:18;;;;;;;2.85;1.35;;;;;;;9.80;19.92;96437.63;6295861;28;20417;-68
2022/10/22 12:00:42;;;;;;;2.58;1.27;;;;;;;9.18;20.38;96440.94;6298919;28;20048;-68
2022/10/22 12:03:59;;;;;;;1.35;0.90;;;;;;;8.47;20.97;96453.34;6298641;28;20048;-69
2022/10/22 12:07:03;;;;;;;1.10;0.75;;;;;;;7.15;22.44;96458.66;6298558;28;20048;-70
2022/10/22 12:10:19;;;;;;;3.15;1.55;;;;;;;6.11;24.17;96463.63;6298659;28;20040;-69
2022/10/22 12:13:24;;;;;;;2.17;1.10;;;;;;;5.59;25.23;96464.56;6298439;28;20059;-69
2022/10/22 12:16:36;;;;;;;2.35;1.60;;;;;;;4.87;26.08;96469.03;6298011;28;20063;-69
2022/10/22 12:20:06;;;;;;;2.80;1.50;;;;;;;4.57;26.68;96470.50;6298033;28;20151;-69
2022/10/22 12:23:13;;;;;;;3.30;1.85;;;;;;;4.24;27.37;96490.22;6298156;28;20048;-69
2022/10/22 12:26:27;;;;;;;4.40;1.98;;;;;;;4.55;27.41;96494.00;6298205;28;20041;-69
2022/10/22 12:29:31;;;;;;;2.10;1.83;;;;;;;4.82;26.95;96499.69;6298279;28;20048;-70
2022/10/22 12:32:37;;;;;;;4.28;1.83;;;;;;;4.67;27.29;96503.00;6298048;28;20414;-69
2022/10/22 12:35:46;;;;;;;4.25;1.60;;;;;;;4.36;28.00;96520.09;6298000;28;20079;-68
2022/10/22 12:38:48;;;;;;;2.80;2.03;;;;;;;3.81;28.64;96522.53;6297652;28;20151;-68
2022/10/22 12:41:52;;;;;;;2.33;1.83;;;;;;;3.44;29.57;96523.28;6296929;28;20053;-71
2022/10/22 12:44:55;;;;;;;4.82;3.50;;;;;;;3.08;30.23;96523.88;6297821;28;20040;-68
2022/10/22 12:48:05;;;;;;;6.07;3.20;;;;;;;2.88;31.38;96529.88;6297058;28;20052;-69
2022/10/22 12:51:08;;;;;;;4.68;2.80;;;;;;;2.73;31.43;96535.69;6297571;28;20143;-70
2022/10/22 12:54:23;;;;;;;4.07;2.33;;;;;;;2.64;32.41;96545.53;6297405;28;20045;-69
2022/10/22 12:57:28;;;;;;;3.08;2.13;;;;;;;2.59;32.72;96550.06;6296900;28;20134;-69
2022/10/22 13:00:35;;;;;;;4.15;1.98;;;;;;;2.44;33.21;96553.25;6296794;28;20036;-69
2022/10/22 13:03:43;;;;;;;2.40;1.50;;;;;;;2.39;34.07;96562.97;6297064;28;20051;-69
2022/10/22 13:07:03;;;;;;;5.55;2.50;;;;;;;2.16;34.63;96564.66;6294870;28;20044;-69
2022/10/22 13:10:25;;;;;;;2.97;2.45;;;;;;;1.99;34.65;96559.22;6296911;28;20051;-69
2022/10/22 13:13:41;;;;;;;5.18;3.17;;;;;;;1.92;35.53;96579.34;6297003;28;20044;-68
2022/10/22 13:17:05;;;;;;;7.57;3.40;;;;;;;1.86;35.93;96594.28;6296948;28;20415;-70
2022/10/22 13:20:22;;;;;;;3.55;2.30;;;;;;;1.68;36.57;96594.03;6296627;28;20040;-69
2022/10/22 13:23:28;;;;;;;3.72;2.20;;;;;;;1.60;37.42;96606.41;6296751;28;20079;-69
2022/10/22 13:26:34;;;;;;;3.78;2.10;;;;;;;1.48;37.83;96612.00;6296448;28;20048;-69
2022/10/22 13:29:37;;;;;;;3.85;2.10;;;;;;;1.49;38.39;96618.88;6296590;28;20048;-71
2022/10/22 13:32:48;;;;;;;3.97;1.95;;;;;;;1.37;39.68;96616.69;6296608;28;20040;-70
2022/10/22 13:35:50;;;;;;;3.58;1.40;;;;;;;1.37;40.53;96638.28;6296719;28;20461;-69
2022/10/22 13:38:54;;;;;;;1.65;1.30;;;;;;;1.54;41.53;96645.50;6296285;28;20041;-70
2022/10/22 13:41:56;;;;;;;1.85;1.20;;;;;;;1.49;41.59;96637.88;6296077;28;20054;-69
2022/10/22 13:45:04;;;;;;;2.45;1.00;;;;;;;1.35;42.12;96656.44;6296323;28;20052;-70
2022/10/22 13:48:13;;;;;;;3.03;1.30;;;;;;;1.21;42.71;96653.44;6296004;28;20033;-69
2022/10/22 13:51:21;;;;;;;2.03;1.23;;;;;;;1.12;42.78;96654.59;6296275;28;20040;-69
2022/10/22 13:54:23;;;;;;;2.13;1.20;;;;;;;1.19;43.40;96680.31;6296183;28;20048;-68
2022/10/22 13:57:25;;;;;;;2.30;1.17;;;;;;;1.03;43.34;96673.00;6295767;28;20514;-69
2022/10/22 14:00:30;;;;;;;2.55;1.60;;;;;;;1.07;43.92;96678.94;6295699;28;20080;-70
2022/10/22 14:03:33;;;;;;;2.90;1.20;;;;;;;0.95;43.83;96692.28;6295598;28;20449;-69
2022/10/22 14:06:34;;;;;;;3.90;1.95;;;;;;;0.78;44.59;96698.78;6295503;28;20528;-69
2022/10/22 14:09:36;;;;;;;2.47;1.30;;;;;;;0.65;45.05;96707.78;6295089;28;20185;-69
2022/10/22 14:12:41;;;;;;;2.97;1.40;;;;;;;0.65;45.02;96715.56;6295662;28;20133;-69
2022/10/22 14:15:43;;;;;;;2.33;1.02;;;;;;;0.60;45.18;96717.47;6295704;28;20047;-69
2022/10/22 14:18:46;;;;;;;2.40;0.80;;;;;;;0.62;45.20;96737.25;6295028;28;20486;-69
2022/10/22 14:21:50;;;;;;;2.85;1.00;;;;;;;0.49;45.55;96741.03;6295719;28;20040;-69
2022/10/22 14:24:53;;;;;;;1.45;0.82;;;;;;;0.29;46.18;96745.91;6295267;28;20040;-68
2022/10/22 14:27:57;;;;;;;1.65;1.13;;;;;;;0.15;45.98;96756.63;6295209;28;20047;-68
2022/10/22 14:30:59;;;;;;;1.08;0.88;;;;;;;0.05;46.71;96760.31;6295286;28;20135;-69
2022/10/22 14:34:04;;;;;;;1.23;0.80;;;;;;;0.03;47.02;96759.50;6295360;28;20048;-69
2022/10/22 14:37:16;;;;;;;2.75;1.35;;;;;;;-0.09;47.16;96756.31;6295236;28;20082;-69
2022/10/22 14:40:19;;;;;;;3.35;1.27;;;;;;;-0.12;47.90;96779.69;6294982;28;20060;-69
2022/10/22 14:43:27;;;;;;;2.30;1.20;;;;;;;-0.18;48.00;96769.47;6295214;28;20048;-70
2022/10/22 14:46:31;;;;;;;1.63;1.30;;;;;;;-0.29;48.01;96766.31;6294614;28;20514;-69
2022/10/22 14:49:36;;;;;;;1.48;1.00;;;;;;;-0.33;48.14;96785.38;6295047;28;20032;-69
2022/10/22 14:52:43;;;;;;;1.70;0.80;;;;;;;-0.39;48.50;96793.28;6294914;28;20178;-69
2022/10/22 14:55:50;;;;;;;3.10;1.10;;;;;;;-0.29;48.28;96787.84;6294978;28;20036;-69